Terminal Aerodrome Forecast
Issued by NWS

Home | Current Version | Previous Version | Text Only | Print | Product List | Glossary On
Versions: 1 2 3 4 5 6 7 8 9 10 11 12 13
000
FTUS45 KABQ 301100
TAFTCC
TAF
KTCC 301130Z 3012/3112 24005KT P6SM FEW100
     FM301700 21010G20KT P6SM SKC
     FM302300 21015G25KT P6SM VCSH BKN080
     FM310200 21015G25KT P6SM BKN100
     FM311100 24010G20KT P6SM FEW100=

USA.gov is the U.S. government's official web portal to all federal, state and local government web resources and services.